sensor_id;sensor_type;location;lat;lon;timestamp;temperature;humidity
22578;DHT22;11455;52.390;13.028;2023-05-07T00:02:00;12.10;99.90
22578;DHT22;11455;52.390;13.028;2023-05-07T00:04:26;12.10;99.90
22578;DHT22;11455;52.390;13.028;2023-05-07T00:06:53;12.10;99.90
22578;DHT22;11455;52.390;13.028;2023-05-07T00:09:19;12.10;99.90
22578;DHT22;11455;52.390;13.028;2023-05-07T00:11:46;12.10;99.90
22578;DHT22;11455;52.390;13.028;2023-05-07T00:14:12;12.10;99.90
22578;DHT22;11455;52.390;13.028;2023-05-07T00:16:38;12.10;99.90
22578;DHT22;11455;52.390;13.028;2023-05-07T00:19:03;12.10;99.90
22578;DHT22;11455;52.390;13.028;2023-05-07T00:21:29;12.10;99.90
22578;DHT22;11455;52.390;13.028;2023-05-07T00:23:55;12.00;99.90
22578;DHT22;11455;52.390;13.028;2023-05-07T00:26:21;12.00;99.90
22578;DHT22;11455;52.390;13.028;2023-05-07T00:28:49;12.10;99.90
22578;DHT22;11455;52.390;13.028;2023-05-07T00:31:14;12.10;99.90
22578;DHT22;11455;52.390;13.028;2023-05-07T00:33:40;12.10;99.90
22578;DHT22;11455;52.390;13.028;2023-05-07T00:36:06;12.10;99.90
22578;DHT22;11455;52.390;13.028;2023-05-07T00:38:32;12.10;99.90
22578;DHT22;11455;52.390;13.028;2023-05-07T00:40:57;12.00;99.90
22578;DHT22;11455;52.390;13.028;2023-05-07T00:43:23;12.10;99.90
22578;DHT22;11455;52.390;13.028;2023-05-07T00:45:48;12.10;99.90
22578;DHT22;11455;52.390;13.028;2023-05-07T00:48:14;12.10;99.90
22578;DHT22;11455;52.390;13.028;2023-05-07T00:50:40;12.20;99.90
22578;DHT22;11455;52.390;13.028;2023-05-07T00:53:06;12.10;99.90
22578;DHT22;11455;52.390;13.028;2023-05-07T00:55:32;12.10;99.90
22578;DHT22;11455;52.390;13.028;2023-05-07T00:57:58;12.10;99.90
22578;DHT22;11455;52.390;13.028;2023-05-07T01:00:23;12.10;99.90
22578;DHT22;11455;52.390;13.028;2023-05-07T01:02:50;12.10;99.90
22578;DHT22;11455;52.390;13.028;2023-05-07T01:05:17;12.00;99.90
22578;DHT22;11455;52.390;13.028;2023-05-07T01:07:45;12.10;99.90
22578;DHT22;11455;52.390;13.028;2023-05-07T01:10:11;12.10;99.90
22578;DHT22;11455;52.390;13.028;2023-05-07T01:12:37;12.10;99.90
22578;DHT22;11455;52.390;13.028;2023-05-07T01:15:04;12.10;99.90
22578;DHT22;11455;52.390;13.028;2023-05-07T01:17:33;12.10;99.90
22578;DHT22;11455;52.390;13.028;2023-05-07T01:20:00;12.10;99.90
22578;DHT22;11455;52.390;13.028;2023-05-07T01:22:28;12.10;99.90
22578;DHT22;11455;52.390;13.028;2023-05-07T01:24:55;12.00;99.90
22578;DHT22;11455;52.390;13.028;2023-05-07T01:27:21;12.10;99.90
22578;DHT22;11455;52.390;13.028;2023-05-07T01:29:50;12.10;99.90
22578;DHT22;11455;52.390;13.028;2023-05-07T01:32:15;12.10;99.90
22578;DHT22;11455;52.390;13.028;2023-05-07T01:34:44;12.00;99.90
22578;DHT22;11455;52.390;13.028;2023-05-07T01:37:10;12.00;99.90
22578;DHT22;11455;52.390;13.028;2023-05-07T01:39:37;12.10;99.90
22578;DHT22;11455;52.390;13.028;2023-05-07T01:42:04;12.00;99.90
22578;DHT22;11455;52.390;13.028;2023-05-07T01:44:30;12.00;99.90
22578;DHT22;11455;52.390;13.028;2023-05-07T01:46:56;12.00;99.90
22578;DHT22;11455;52.390;13.028;2023-05-07T01:49:25;12.00;99.90
22578;DHT22;11455;52.390;13.028;2023-05-07T01:51:51;12.00;99.90
22578;DHT22;11455;52.390;13.028;2023-05-07T01:54:17;11.90;99.90
22578;DHT22;11455;52.390;13.028;2023-05-07T01:56:42;11.90;99.90
22578;DHT22;11455;52.390;13.028;2023-05-07T01:59:08;11.90;99.90
22578;DHT22;11455;52.390;13.028;2023-05-07T02:01:34;12.00;99.90
22578;DHT22;11455;52.390;13.028;2023-05-07T02:04:00;12.00;99.90
22578;DHT22;11455;52.390;13.028;2023-05-07T02:06:28;12.10;99.90
22578;DHT22;11455;52.390;13.028;2023-05-07T02:08:58;12.00;99.90
22578;DHT22;11455;52.390;13.028;2023-05-07T02:11:24;12.10;99.90
22578;DHT22;11455;52.390;13.028;2023-05-07T02:13:50;12.10;99.90
22578;DHT22;11455;52.390;13.028;2023-05-07T02:16:16;12.10;99.90
22578;DHT22;11455;52.390;13.028;2023-05-07T02:18:42;12.10;99.90
22578;DHT22;11455;52.390;13.028;2023-05-07T02:21:07;12.10;99.90
22578;DHT22;11455;52.390;13.028;2023-05-07T02:23:33;12.10;99.90
22578;DHT22;11455;52.390;13.028;2023-05-07T02:25:59;12.10;99.90
22578;DHT22;11455;52.390;13.028;2023-05-07T02:28:24;12.10;99.90
22578;DHT22;11455;52.390;13.028;2023-05-07T02:30:57;12.00;99.90
22578;DHT22;11455;52.390;13.028;2023-05-07T02:33:26;12.10;99.90
22578;DHT22;11455;52.390;13.028;2023-05-07T02:35:52;12.10;99.90
22578;DHT22;11455;52.390;13.028;2023-05-07T02:38:18;12.10;99.90
22578;DHT22;11455;52.390;13.028;2023-05-07T02:40:44;12.10;99.90
22578;DHT22;11455;52.390;13.028;2023-05-07T02:43:12;12.10;99.90
22578;DHT22;11455;52.390;13.028;2023-05-07T02:45:41;12.10;99.90
22578;DHT22;11455;52.390;13.028;2023-05-07T02:48:08;12.10;99.90
22578;DHT22;11455;52.390;13.028;2023-05-07T02:50:34;12.10;99.90
22578;DHT22;11455;52.390;13.028;2023-05-07T02:53:00;12.10;99.90
22578;DHT22;11455;52.390;13.028;2023-05-07T02:55:26;12.10;99.90
22578;DHT22;11455;52.390;13.028;2023-05-07T02:57:51;12.10;99.90
22578;DHT22;11455;52.390;13.028;2023-05-07T03:00:18;12.00;99.90
22578;DHT22;11455;52.390;13.028;2023-05-07T03:03:08;11.90;99.90
22578;DHT22;11455;52.390;13.028;2023-05-07T03:05:33;11.80;99.90
22578;DHT22;11455;52.390;13.028;2023-05-07T03:07:59;11.80;99.90
22578;DHT22;11455;52.390;13.028;2023-05-07T03:10:25;11.80;99.90
22578;DHT22;11455;52.390;13.028;2023-05-07T03:12:50;11.70;99.90
22578;DHT22;11455;52.390;13.028;2023-05-07T03:15:17;11.70;99.90
22578;DHT22;11455;52.390;13.028;2023-05-07T03:17:42;11.70;99.90
22578;DHT22;11455;52.390;13.028;2023-05-07T03:20:08;11.60;99.90
22578;DHT22;11455;52.390;13.028;2023-05-07T03:22:34;11.60;99.90
22578;DHT22;11455;52.390;13.028;2023-05-07T03:25:01;11.50;99.90
22578;DHT22;11455;52.390;13.028;2023-05-07T03:27:26;11.60;99.90
22578;DHT22;11455;52.390;13.028;2023-05-07T03:29:53;11.60;99.90
22578;DHT22;11455;52.390;13.028;2023-05-07T03:32:19;11.70;99.90
22578;DHT22;11455;52.390;13.028;2023-05-07T03:34:45;11.80;99.90
22578;DHT22;11455;52.390;13.028;2023-05-07T03:37:12;11.80;99.90
22578;DHT22;11455;52.390;13.028;2023-05-07T03:39:39;11.80;99.90
22578;DHT22;11455;52.390;13.028;2023-05-07T03:42:05;11.70;99.90
22578;DHT22;11455;52.390;13.028;2023-05-07T03:44:33;11.80;99.90
22578;DHT22;11455;52.390;13.028;2023-05-07T03:47:02;11.80;99.90
22578;DHT22;11455;52.390;13.028;2023-05-07T03:49:28;11.80;99.90
22578;DHT22;11455;52.390;13.028;2023-05-07T03:51:53;11.70;99.90
22578;DHT22;11455;52.390;13.028;2023-05-07T03:54:19;11.70;99.90
22578;DHT22;11455;52.390;13.028;2023-05-07T03:56:46;11.60;99.90
22578;DHT22;11455;52.390;13.028;2023-05-07T03:59:12;11.50;99.90
22578;DHT22;11455;52.390;13.028;2023-05-07T04:01:39;11.50;99.90
22578;DHT22;11455;52.390;13.028;2023-05-07T04:04:05;11.50;99.90
22578;DHT22;11455;52.390;13.028;2023-05-07T04:06:34;11.50;99.90
22578;DHT22;11455;52.390;13.028;2023-05-07T04:09:00;11.50;99.90
22578;DHT22;11455;52.390;13.028;2023-05-07T04:11:26;11.60;99.90
22578;DHT22;11455;52.390;13.028;2023-05-07T04:13:52;11.50;99.90
22578;DHT22;11455;52.390;13.028;2023-05-07T04:16:20;11.60;99.90
22578;DHT22;11455;52.390;13.028;2023-05-07T04:18:46;11.70;99.90
22578;DHT22;11455;52.390;13.028;2023-05-07T04:21:16;11.70;99.90
22578;DHT22;11455;52.390;13.028;2023-05-07T04:23:41;11.70;99.90
22578;DHT22;11455;52.390;13.028;2023-05-07T04:26:10;11.70;99.90
22578;DHT22;11455;52.390;13.028;2023-05-07T04:28:39;11.70;99.90
22578;DHT22;11455;52.390;13.028;2023-05-07T04:31:05;11.70;99.90
22578;DHT22;11455;52.390;13.028;2023-05-07T04:33:33;11.70;99.90
22578;DHT22;11455;52.390;13.028;2023-05-07T04:36:00;11.70;99.90
22578;DHT22;11455;52.390;13.028;2023-05-07T04:38:29;11.80;99.90
22578;DHT22;11455;52.390;13.028;2023-05-07T04:40:56;11.80;99.90
22578;DHT22;11455;52.390;13.028;2023-05-07T04:43:25;11.80;99.90
22578;DHT22;11455;52.390;13.028;2023-05-07T04:45:53;11.70;99.90
22578;DHT22;11455;52.390;13.028;2023-05-07T04:48:21;11.70;99.90
22578;DHT22;11455;52.390;13.028;2023-05-07T04:50:52;11.70;99.90
22578;DHT22;11455;52.390;13.028;2023-05-07T04:53:19;11.70;99.90
22578;DHT22;11455;52.390;13.028;2023-05-07T04:55:45;11.80;99.90
22578;DHT22;11455;52.390;13.028;2023-05-07T04:58:14;11.80;99.90
22578;DHT22;11455;52.390;13.028;2023-05-07T05:00:40;11.70;99.90
22578;DHT22;11455;52.390;13.028;2023-05-07T05:03:07;11.60;99.90
22578;DHT22;11455;52.390;13.028;2023-05-07T05:05:33;11.50;99.90
22578;DHT22;11455;52.390;13.028;2023-05-07T05:07:59;11.50;99.90
22578;DHT22;11455;52.390;13.028;2023-05-07T05:10:25;11.50;99.90
22578;DHT22;11455;52.390;13.028;2023-05-07T05:12:51;11.50;99.90
22578;DHT22;11455;52.390;13.028;2023-05-07T05:15:20;11.40;99.90
22578;DHT22;11455;52.390;13.028;2023-05-07T05:17:46;11.40;99.90
22578;DHT22;11455;52.390;13.028;2023-05-07T05:20:12;11.40;99.90
22578;DHT22;11455;52.390;13.028;2023-05-07T05:22:39;11.50;99.90
22578;DHT22;11455;52.390;13.028;2023-05-07T05:25:05;11.50;99.90
22578;DHT22;11455;52.390;13.028;2023-05-07T05:27:31;11.50;99.90
22578;DHT22;11455;52.390;13.028;2023-05-07T05:29:57;11.40;99.90
22578;DHT22;11455;52.390;13.028;2023-05-07T05:32:23;11.40;99.90
22578;DHT22;11455;52.390;13.028;2023-05-07T05:34:52;11.50;99.90
22578;DHT22;11455;52.390;13.028;2023-05-07T05:37:20;11.60;99.90
22578;DHT22;11455;52.390;13.028;2023-05-07T05:39:46;11.50;99.90
22578;DHT22;11455;52.390;13.028;2023-05-07T05:42:12;11.50;99.90
22578;DHT22;11455;52.390;13.028;2023-05-07T05:44:38;11.50;99.90
22578;DHT22;11455;52.390;13.028;2023-05-07T05:47:04;11.50;99.90
22578;DHT22;11455;52.390;13.028;2023-05-07T05:49:30;11.50;99.90
22578;DHT22;11455;52.390;13.028;2023-05-07T05:51:55;11.60;99.90
22578;DHT22;11455;52.390;13.028;2023-05-07T05:54:23;11.60;99.90
22578;DHT22;11455;52.390;13.028;2023-05-07T05:56:49;11.60;99.90
22578;DHT22;11455;52.390;13.028;2023-05-07T05:59:15;11.50;99.90
22578;DHT22;11455;52.390;13.028;2023-05-07T06:01:41;11.50;99.90
22578;DHT22;11455;52.390;13.028;2023-05-07T06:04:07;11.50;99.90
22578;DHT22;11455;52.390;13.028;2023-05-07T06:06:33;11.50;99.90
22578;DHT22;11455;52.390;13.028;2023-05-07T06:09:00;11.50;99.90
22578;DHT22;11455;52.390;13.028;2023-05-07T06:11:33;11.50;99.90
22578;DHT22;11455;52.390;13.028;2023-05-07T06:13:59;11.50;99.90
22578;DHT22;11455;52.390;13.028;2023-05-07T06:16:26;11.50;99.90
22578;DHT22;11455;52.390;13.028;2023-05-07T06:18:53;11.40;99.90
22578;DHT22;11455;52.390;13.028;2023-05-07T06:21:18;11.40;99.90
22578;DHT22;11455;52.390;13.028;2023-05-07T06:23:44;11.50;99.90
22578;DHT22;11455;52.390;13.028;2023-05-07T06:26:10;11.60;99.90
22578;DHT22;11455;52.390;13.028;2023-05-07T06:28:41;11.80;99.90
22578;DHT22;11455;52.390;13.028;2023-05-07T06:31:17;11.90;99.90
22578;DHT22;11455;52.390;13.028;2023-05-07T06:33:51;12.00;99.90
22578;DHT22;11455;52.390;13.028;2023-05-07T06:36:17;12.00;99.90
22578;DHT22;11455;52.390;13.028;2023-05-07T06:38:43;12.00;99.90
22578;DHT22;11455;52.390;13.028;2023-05-07T06:41:09;12.10;99.90
22578;DHT22;11455;52.390;13.028;2023-05-07T06:43:37;12.10;99.90
22578;DHT22;11455;52.390;13.028;2023-05-07T06:46:29;12.20;99.90
22578;DHT22;11455;52.390;13.028;2023-05-07T06:48:55;12.40;99.90
22578;DHT22;11455;52.390;13.028;2023-05-07T06:51:22;12.50;99.90
22578;DHT22;11455;52.390;13.028;2023-05-07T06:53:48;12.40;99.90
22578;DHT22;11455;52.390;13.028;2023-05-07T06:56:14;12.30;99.90
22578;DHT22;11455;52.390;13.028;2023-05-07T06:58:39;12.10;99.90
22578;DHT22;11455;52.390;13.028;2023-05-07T07:01:06;12.10;99.90
22578;DHT22;11455;52.390;13.028;2023-05-07T07:03:35;12.00;99.90
22578;DHT22;11455;52.390;13.028;2023-05-07T07:06:00;12.00;99.90
22578;DHT22;11455;52.390;13.028;2023-05-07T07:08:28;12.10;99.90
22578;DHT22;11455;52.390;13.028;2023-05-07T07:10:54;12.20;99.90
22578;DHT22;11455;52.390;13.028;2023-05-07T07:13:19;12.20;99.90
22578;DHT22;11455;52.390;13.028;2023-05-07T07:15:45;12.20;99.90
22578;DHT22;11455;52.390;13.028;2023-05-07T07:18:11;12.30;99.90
22578;DHT22;11455;52.390;13.028;2023-05-07T07:20:37;12.30;99.90
22578;DHT22;11455;52.390;13.028;2023-05-07T07:23:03;12.30;99.90
22578;DHT22;11455;52.390;13.028;2023-05-07T07:25:31;12.40;99.90
22578;DHT22;11455;52.390;13.028;2023-05-07T07:27:57;12.30;98.90
22578;DHT22;11455;52.390;13.028;2023-05-07T07:30:24;12.20;96.90
22578;DHT22;11455;52.390;13.028;2023-05-07T07:32:50;12.10;99.90
22578;DHT22;11455;52.390;13.028;2023-05-07T07:35:18;12.00;99.90
22578;DHT22;11455;52.390;13.028;2023-05-07T07:37:44;12.10;99.90
22578;DHT22;11455;52.390;13.028;2023-05-07T07:40:11;12.30;99.90
22578;DHT22;11455;52.390;13.028;2023-05-07T07:42:37;12.40;99.90
22578;DHT22;11455;52.390;13.028;2023-05-07T07:45:03;12.40;99.90
22578;DHT22;11455;52.390;13.028;2023-05-07T07:47:32;12.50;99.90
22578;DHT22;11455;52.390;13.028;2023-05-07T07:49:58;12.50;99.90
22578;DHT22;11455;52.390;13.028;2023-05-07T07:52:24;12.50;96.10
22578;DHT22;11455;52.390;13.028;2023-05-07T07:54:52;12.50;99.90
22578;DHT22;11455;52.390;13.028;2023-05-07T07:57:18;12.40;99.90
22578;DHT22;11455;52.390;13.028;2023-05-07T07:59:43;12.60;99.90
22578;DHT22;11455;52.390;13.028;2023-05-07T08:02:11;12.60;97.60
22578;DHT22;11455;52.390;13.028;2023-05-07T08:04:36;12.70;45.60
22578;DHT22;11455;52.390;13.028;2023-05-07T08:07:04;12.70;75.00
22578;DHT22;11455;52.390;13.028;2023-05-07T08:09:32;12.80;77.80
22578;DHT22;11455;52.390;13.028;2023-05-07T08:12:00;12.80;48.00
22578;DHT22;11455;52.390;13.028;2023-05-07T08:14:29;12.80;61.50
22578;DHT22;11455;52.390;13.028;2023-05-07T08:16:56;12.70;58.90
22578;DHT22;11455;52.390;13.028;2023-05-07T08:19:24;12.80;71.90
22578;DHT22;11455;52.390;13.028;2023-05-07T08:21:50;12.80;61.40
22578;DHT22;11455;52.390;13.028;2023-05-07T08:24:17;12.90;62.60
22578;DHT22;11455;52.390;13.028;2023-05-07T08:26:43;12.90;30.40
22578;DHT22;11455;52.390;13.028;2023-05-07T08:29:10;12.90;27.80
22578;DHT22;11455;52.390;13.028;2023-05-07T08:31:36;12.80;39.70
22578;DHT22;11455;52.390;13.028;2023-05-07T08:34:02;12.90;39.70
22578;DHT22;11455;52.390;13.028;2023-05-07T08:36:28;12.80;44.00
22578;DHT22;11455;52.390;13.028;2023-05-07T08:38:54;12.90;50.40
22578;DHT22;11455;52.390;13.028;2023-05-07T08:41:20;13.00;34.80
22578;DHT22;11455;52.390;13.028;2023-05-07T08:43:50;13.10;27.60
22578;DHT22;11455;52.390;13.028;2023-05-07T08:46:17;13.20;15.20
22578;DHT22;11455;52.390;13.028;2023-05-07T08:48:44;13.40;6.60
22578;DHT22;11455;52.390;13.028;2023-05-07T08:51:13;13.50;1.00
22578;DHT22;11455;52.390;13.028;2023-05-07T08:53:40;13.50;1.00
22578;DHT22;11455;52.390;13.028;2023-05-07T08:56:06;13.50;1.00
22578;DHT22;11455;52.390;13.028;2023-05-07T08:58:33;13.50;1.00
22578;DHT22;11455;52.390;13.028;2023-05-07T09:00:59;13.50;1.00
22578;DHT22;11455;52.390;13.028;2023-05-07T09:03:27;13.50;1.00
22578;DHT22;11455;52.390;13.028;2023-05-07T09:05:54;13.60;1.00
22578;DHT22;11455;52.390;13.028;2023-05-07T09:08:24;13.70;1.00
22578;DHT22;11455;52.390;13.028;2023-05-07T09:10:49;13.70;1.00
22578;DHT22;11455;52.390;13.028;2023-05-07T09:13:16;13.80;1.00
22578;DHT22;11455;52.390;13.028;2023-05-07T09:15:43;14.00;1.00
22578;DHT22;11455;52.390;13.028;2023-05-07T09:18:09;14.10;1.00
22578;DHT22;11455;52.390;13.028;2023-05-07T09:20:37;14.20;1.00
22578;DHT22;11455;52.390;13.028;2023-05-07T09:23:04;14.30;1.00
22578;DHT22;11455;52.390;13.028;2023-05-07T09:25:31;14.30;1.00
22578;DHT22;11455;52.390;13.028;2023-05-07T09:28:01;14.30;1.00
22578;DHT22;11455;52.390;13.028;2023-05-07T09:30:30;14.30;1.00
22578;DHT22;11455;52.390;13.028;2023-05-07T09:32:59;14.20;1.00
22578;DHT22;11455;52.390;13.028;2023-05-07T09:35:25;14.10;1.00
22578;DHT22;11455;52.390;13.028;2023-05-07T09:37:59;14.00;1.00
22578;DHT22;11455;52.390;13.028;2023-05-07T09:40:28;14.00;1.00
22578;DHT22;11455;52.390;13.028;2023-05-07T09:42:56;14.20;1.00
22578;DHT22;11455;52.390;13.028;2023-05-07T09:45:29;14.30;1.00
22578;DHT22;11455;52.390;13.028;2023-05-07T09:47:57;14.30;1.00
22578;DHT22;11455;52.390;13.028;2023-05-07T09:50:28;14.40;1.00
22578;DHT22;11455;52.390;13.028;2023-05-07T09:52:55;14.50;1.00
22578;DHT22;11455;52.390;13.028;2023-05-07T09:55:22;14.60;1.00
22578;DHT22;11455;52.390;13.028;2023-05-07T09:57:52;14.60;1.00
22578;DHT22;11455;52.390;13.028;2023-05-07T10:00:18;14.60;1.00
22578;DHT22;11455;52.390;13.028;2023-05-07T10:02:48;14.60;1.00
22578;DHT22;11455;52.390;13.028;2023-05-07T10:05:21;14.60;1.00
22578;DHT22;11455;52.390;13.028;2023-05-07T10:07:50;14.50;1.00
22578;DHT22;11455;52.390;13.028;2023-05-07T10:10:17;14.50;1.00
22578;DHT22;11455;52.390;13.028;2023-05-07T10:12:44;14.50;1.00
22578;DHT22;11455;52.390;13.028;2023-05-07T10:15:23;14.60;1.00
22578;DHT22;11455;52.390;13.028;2023-05-07T10:17:53;14.70;1.00
22578;DHT22;11455;52.390;13.028;2023-05-07T10:20:22;14.70;1.00
22578;DHT22;11455;52.390;13.028;2023-05-07T10:22:48;14.80;1.00
22578;DHT22;11455;52.390;13.028;2023-05-07T10:25:21;14.80;1.00
22578;DHT22;11455;52.390;13.028;2023-05-07T10:27:49;14.80;1.00
22578;DHT22;11455;52.390;13.028;2023-05-07T10:30:29;14.80;1.00
22578;DHT22;11455;52.390;13.028;2023-05-07T10:32:59;14.70;1.00
22578;DHT22;11455;52.390;13.028;2023-05-07T10:35:41;14.70;1.00
22578;DHT22;11455;52.390;13.028;2023-05-07T10:38:08;14.80;1.00
22578;DHT22;11455;52.390;13.028;2023-05-07T10:40:36;14.80;1.00
22578;DHT22;11455;52.390;13.028;2023-05-07T10:43:03;14.80;1.00
22578;DHT22;11455;52.390;13.028;2023-05-07T10:45:36;14.80;1.00
22578;DHT22;11455;52.390;13.028;2023-05-07T10:48:05;14.90;1.00
22578;DHT22;11455;52.390;13.028;2023-05-07T10:50:31;15.10;1.00
22578;DHT22;11455;52.390;13.028;2023-05-07T10:55:43;15.30;1.00
22578;DHT22;11455;52.390;13.028;2023-05-07T10:58:23;15.10;1.00
22578;DHT22;11455;52.390;13.028;2023-05-07T11:01:00;15.10;1.00
22578;DHT22;11455;52.390;13.028;2023-05-07T11:03:32;15.10;1.00
22578;DHT22;11455;52.390;13.028;2023-05-07T11:06:20;14.90;1.00
22578;DHT22;11455;52.390;13.028;2023-05-07T11:08:58;14.90;1.00
22578;DHT22;11455;52.390;13.028;2023-05-07T11:11:52;14.80;1.00
22578;DHT22;11455;52.390;13.028;2023-05-07T11:17:09;15.00;1.00
22578;DHT22;11455;52.390;13.028;2023-05-07T11:19:51;15.00;1.00
22578;DHT22;11455;52.390;13.028;2023-05-07T11:25:06;15.10;1.00
22578;DHT22;11455;52.390;13.028;2023-05-07T11:27:32;15.20;1.00
22578;DHT22;11455;52.390;13.028;2023-05-07T11:29:58;15.40;1.00
22578;DHT22;11455;52.390;13.028;2023-05-07T11:32:28;15.50;1.00
22578;DHT22;11455;52.390;13.028;2023-05-07T11:34:55;15.60;1.00
22578;DHT22;11455;52.390;13.028;2023-05-07T11:37:22;15.50;1.00
22578;DHT22;11455;52.390;13.028;2023-05-07T11:40:03;15.50;1.00
22578;DHT22;11455;52.390;13.028;2023-05-07T11:42:33;15.60;1.00
22578;DHT22;11455;52.390;13.028;2023-05-07T11:44:59;15.30;1.00
22578;DHT22;11455;52.390;13.028;2023-05-07T11:47:26;15.40;1.00
22578;DHT22;11455;52.390;13.028;2023-05-07T11:49:52;15.40;1.00
22578;DHT22;11455;52.390;13.028;2023-05-07T11:52:19;15.40;1.00
22578;DHT22;11455;52.390;13.028;2023-05-07T11:54:51;15.30;1.00
22578;DHT22;11455;52.390;13.028;2023-05-07T11:57:18;15.30;1.00
22578;DHT22;11455;52.390;13.028;2023-05-07T11:59:44;15.30;1.00
22578;DHT22;11455;52.390;13.028;2023-05-07T12:02:09;15.40;1.00
22578;DHT22;11455;52.390;13.028;2023-05-07T12:04:38;15.40;1.00
22578;DHT22;11455;52.390;13.028;2023-05-07T12:07:03;15.50;1.00
22578;DHT22;11455;52.390;13.028;2023-05-07T12:09:29;15.50;1.00
22578;DHT22;11455;52.390;13.028;2023-05-07T12:11:58;15.50;1.00
22578;DHT22;11455;52.390;13.028;2023-05-07T12:14:27;15.60;1.00
22578;DHT22;11455;52.390;13.028;2023-05-07T12:16:54;15.40;1.00
22578;DHT22;11455;52.390;13.028;2023-05-07T12:19:20;15.40;1.00
22578;DHT22;11455;52.390;13.028;2023-05-07T12:21:46;15.40;1.00
22578;DHT22;11455;52.390;13.028;2023-05-07T12:24:11;15.40;1.00
22578;DHT22;11455;52.390;13.028;2023-05-07T12:26:39;15.50;1.00
22578;DHT22;11455;52.390;13.028;2023-05-07T12:29:06;15.50;1.00
22578;DHT22;11455;52.390;13.028;2023-05-07T12:31:32;15.50;1.00
22578;DHT22;11455;52.390;13.028;2023-05-07T12:33:57;15.40;1.00
22578;DHT22;11455;52.390;13.028;2023-05-07T12:36:23;15.50;1.00
22578;DHT22;11455;52.390;13.028;2023-05-07T12:38:49;15.50;1.00
22578;DHT22;11455;52.390;13.028;2023-05-07T12:41:15;15.50;1.00
22578;DHT22;11455;52.390;13.028;2023-05-07T12:43:41;15.50;1.00
22578;DHT22;11455;52.390;13.028;2023-05-07T12:46:09;15.50;1.00
22578;DHT22;11455;52.390;13.028;2023-05-07T12:48:37;15.70;1.00
22578;DHT22;11455;52.390;13.028;2023-05-07T12:51:04;15.70;1.00
22578;DHT22;11455;52.390;13.028;2023-05-07T12:53:30;15.80;1.00
22578;DHT22;11455;52.390;13.028;2023-05-07T12:55:57;15.80;1.00
22578;DHT22;11455;52.390;13.028;2023-05-07T12:58:25;15.80;1.00
22578;DHT22;11455;52.390;13.028;2023-05-07T13:00:51;15.80;1.00
22578;DHT22;11455;52.390;13.028;2023-05-07T13:03:21;15.90;1.00
22578;DHT22;11455;52.390;13.028;2023-05-07T13:05:50;16.10;1.00
22578;DHT22;11455;52.390;13.028;2023-05-07T13:08:29;16.20;1.00
22578;DHT22;11455;52.390;13.028;2023-05-07T13:10:56;16.30;1.00
22578;DHT22;11455;52.390;13.028;2023-05-07T13:13:22;16.30;1.00
22578;DHT22;11455;52.390;13.028;2023-05-07T13:15:47;16.20;1.00
22578;DHT22;11455;52.390;13.028;2023-05-07T13:18:13;16.50;1.00
22578;DHT22;11455;52.390;13.028;2023-05-07T13:20:39;16.70;1.00
22578;DHT22;11455;52.390;13.028;2023-05-07T13:23:04;17.10;1.00
22578;DHT22;11455;52.390;13.028;2023-05-07T13:25:30;17.30;1.00
22578;DHT22;11455;52.390;13.028;2023-05-07T13:27:56;17.60;1.00
22578;DHT22;11455;52.390;13.028;2023-05-07T13:30:22;17.90;1.00
22578;DHT22;11455;52.390;13.028;2023-05-07T13:32:51;17.90;1.00
22578;DHT22;11455;52.390;13.028;2023-05-07T13:35:17;17.90;1.00
22578;DHT22;11455;52.390;13.028;2023-05-07T13:37:43;17.70;1.00
22578;DHT22;11455;52.390;13.028;2023-05-07T13:40:09;17.50;1.00
22578;DHT22;11455;52.390;13.028;2023-05-07T13:42:37;17.30;1.00
22578;DHT22;11455;52.390;13.028;2023-05-07T13:45:02;17.00;1.00
22578;DHT22;11455;52.390;13.028;2023-05-07T13:47:30;17.00;1.00
22578;DHT22;11455;52.390;13.028;2023-05-07T13:49:56;17.00;1.00
22578;DHT22;11455;52.390;13.028;2023-05-07T13:52:21;17.30;1.00
22578;DHT22;11455;52.390;13.028;2023-05-07T13:54:47;17.50;1.00
22578;DHT22;11455;52.390;13.028;2023-05-07T13:57:13;17.70;1.00
22578;DHT22;11455;52.390;13.028;2023-05-07T13:59:38;17.70;1.00
22578;DHT22;11455;52.390;13.028;2023-05-07T14:02:04;17.80;1.00
22578;DHT22;11455;52.390;13.028;2023-05-07T14:04:30;17.70;1.00
22578;DHT22;11455;52.390;13.028;2023-05-07T14:06:56;17.50;1.00
22578;DHT22;11455;52.390;13.028;2023-05-07T14:09:21;17.50;1.00
22578;DHT22;11455;52.390;13.028;2023-05-07T14:11:47;17.60;1.00
22578;DHT22;11455;52.390;13.028;2023-05-07T14:14:17;17.50;1.00
22578;DHT22;11455;52.390;13.028;2023-05-07T14:16:42;17.50;1.00
22578;DHT22;11455;52.390;13.028;2023-05-07T14:19:08;17.40;1.00
22578;DHT22;11455;52.390;13.028;2023-05-07T14:21:33;17.60;1.00
22578;DHT22;11455;52.390;13.028;2023-05-07T14:23:59;17.80;1.00
22578;DHT22;11455;52.390;13.028;2023-05-07T14:26:27;17.90;1.00
22578;DHT22;11455;52.390;13.028;2023-05-07T14:28:53;18.00;1.00
22578;DHT22;11455;52.390;13.028;2023-05-07T14:31:20;18.00;1.00
22578;DHT22;11455;52.390;13.028;2023-05-07T14:33:46;18.20;1.00
22578;DHT22;11455;52.390;13.028;2023-05-07T14:36:12;18.10;1.00
22578;DHT22;11455;52.390;13.028;2023-05-07T14:38:38;18.20;1.00
22578;DHT22;11455;52.390;13.028;2023-05-07T14:41:04;18.00;1.00
22578;DHT22;11455;52.390;13.028;2023-05-07T14:43:29;17.90;1.00
22578;DHT22;11455;52.390;13.028;2023-05-07T14:45:55;17.80;1.00
22578;DHT22;11455;52.390;13.028;2023-05-07T14:48:21;17.70;1.00
22578;DHT22;11455;52.390;13.028;2023-05-07T14:50:47;17.70;1.00
22578;DHT22;11455;52.390;13.028;2023-05-07T14:53:15;17.80;1.00
22578;DHT22;11455;52.390;13.028;2023-05-07T14:55:41;17.90;1.00
22578;DHT22;11455;52.390;13.028;2023-05-07T14:58:07;18.00;1.00
22578;DHT22;11455;52.390;13.028;2023-05-07T15:00:33;18.10;1.00
22578;DHT22;11455;52.390;13.028;2023-05-07T15:03:04;18.10;1.00
22578;DHT22;11455;52.390;13.028;2023-05-07T15:05:30;18.20;1.00
22578;DHT22;11455;52.390;13.028;2023-05-07T15:07:56;18.30;1.00
22578;DHT22;11455;52.390;13.028;2023-05-07T15:10:21;18.20;1.00
22578;DHT22;11455;52.390;13.028;2023-05-07T15:12:47;18.20;1.00
22578;DHT22;11455;52.390;13.028;2023-05-07T15:15:12;18.10;1.00
22578;DHT22;11455;52.390;13.028;2023-05-07T15:17:38;18.10;1.00
22578;DHT22;11455;52.390;13.028;2023-05-07T15:20:04;18.20;1.00
22578;DHT22;11455;52.390;13.028;2023-05-07T15:22:30;18.20;1.00
22578;DHT22;11455;52.390;13.028;2023-05-07T15:24:56;18.20;1.00
22578;DHT22;11455;52.390;13.028;2023-05-07T15:27:22;18.30;1.00
22578;DHT22;11455;52.390;13.028;2023-05-07T15:29:50;18.50;1.00
22578;DHT22;11455;52.390;13.028;2023-05-07T15:32:28;18.60;1.00